MV Sea Wolf — WCW6738 — position and weather

sailwx.info

Track history (hours):
 
Tides and Currents Weather Stations Pressure Air Temp Water Temp Dewpoint Dewpoint Depression Visibility Wind Speed Wind Dir Waves Ship Positions

MV Sea Wolf

Owner: SEA WOLF MARINE TOWING & TRANSPORTATION, Bayonne, NJ. More information available from US FCC via Universal Licensing System and Coast Guard Vessel Documentation Center.

Last reported at 2017-Jan-20 05:33 UTC. Time now 2017-Jan-20 05:54 UTC.
Position N 40°41' W 074°05'.

Length 66 m; draft 10 m.

MMSI: 367002350.

Date/timePositionNaut miles runAvg speedWind from/ knotsBaromVisibWave heightAir tempDewpointWater temp
2017-Jan-20 05:33N 40°41' W 074°05'4 4.2
2017-Jan-20 04:33N 40°42' W 073°59'3 2.7
2017-Jan-20 03:33N 40°44' W 073°57'6 5.7
2017-Jan-20 02:33N 40°41' W 074°03'2 1.5
2017-Jan-20 01:33N 40°41' W 074°05'0 0.0
2017-Jan-20 00:33N 40°41' W 074°05'0 0.0
2017-Jan-19 23:33N 40°41' W 074°05'0 0.0
2017-Jan-19 22:33N 40°41' W 074°05'0 0.0
2017-Jan-19 21:33N 40°41' W 074°05'0 0.0
2017-Jan-19 20:33N 40°41' W 074°05'3 2.6
2017-Jan-19 19:33N 40°39' W 074°06'4 4.3
2017-Jan-19 18:33N 40°38' W 074°12'0 0.0
2017-Jan-19 17:33N 40°38' W 074°12'0 0.0
2017-Jan-19 16:33N 40°38' W 074°12'0 0.0
2017-Jan-19 15:33N 40°38' W 074°12'0 0.0
2017-Jan-19 14:33N 40°38' W 074°12'0 0.0
2017-Jan-19 13:33N 40°38' W 074°12'0 0.0
2017-Jan-19 12:33N 40°38' W 074°12'0 0.0
2017-Jan-19 11:33N 40°38' W 074°12'2 1.7
2017-Jan-19 10:33N 40°39' W 074°09'5 4.8
2017-Jan-19 09:34N 40°40' W 074°04'1 1.1
2017-Jan-19 08:33N 40°41' W 074°05'0 0.0
2017-Jan-19 07:34N 40°41' W 074°05'0 0.0
2017-Jan-19 06:34N 40°41' W 074°05'0 0.0
2017-Jan-19 05:33N 40°41' W 074°05'0 0.0
2017-Jan-19 04:33N 40°41' W 074°05'0 0.2
2017-Jan-19 03:33N 40°41' W 074°04'5 4.5
2017-Jan-19 02:33N 40°39' W 074°10'4 3.7
2017-Jan-19 01:33N 40°36' W 074°12'6 5.9
2017-Jan-19 00:33N 40°39' W 074°06'2 2.4
2017-Jan-18 23:34N 40°41' W 074°05'0 0.0
2017-Jan-18 22:33N 40°41' W 074°05'0 0.0
2017-Jan-18 21:33N 40°41' W 074°05'0 0.0
2017-Jan-18 20:33N 40°41' W 074°05'0 0.0
2017-Jan-18 19:33N 40°41' W 074°05'0 0.0
2017-Jan-18 18:34N 40°41' W 074°05'0 0.0
2017-Jan-18 17:33N 40°41' W 074°05'0 0.0
2017-Jan-18 16:33N 40°41' W 074°05'0 0.0
2017-Jan-18 15:34N 40°41' W 074°05'0 0.0
2017-Jan-18 14:33N 40°41' W 074°05'0 0.0
2017-Jan-18 13:33N 40°41' W 074°05'0 0.0
2017-Jan-18 12:33N 40°41' W 074°05'0 0.0
2017-Jan-18 11:33N 40°41' W 074°05'0 0.0
2017-Jan-18 10:33N 40°41' W 074°05'0 0.0
2017-Jan-18 09:33N 40°41' W 074°05'3 2.6
2017-Jan-18 08:33N 40°42' W 074°01'4 4.2
2017-Jan-18 07:33N 40°44' W 073°57'5 5.4
2017-Jan-18 06:33N 40°40' W 074°01'3 2.6
2017-Jan-18 05:33N 40°41' W 074°04'0 0.4
2017-Jan-18 04:33N 40°41' W 074°05'0 0.0
2017-Jan-18 03:33N 40°41' W 074°05'0 0.0
2017-Jan-18 02:33N 40°41' W 074°05'0 0.0
2017-Jan-18 01:33N 40°41' W 074°05'0 0.0
2017-Jan-18 00:33N 40°41' W 074°05'0 0.0
2017-Jan-17 23:33N 40°41' W 074°05'0 0.0
2017-Jan-17 22:33N 40°41' W 074°05'0 0.0
2017-Jan-17 21:33N 40°41' W 074°05'0 0.0
2017-Jan-17 20:33N 40°41' W 074°05'0 0.0
2017-Jan-17 19:33N 40°41' W 074°05'0 0.1
2017-Jan-17 18:33N 40°41' W 074°05'0 0.0
2017-Jan-17 17:33N 40°41' W 074°05'0 0.1
2017-Jan-17 16:33N 40°41' W 074°05'0 0.0
2017-Jan-17 15:33N 40°41' W 074°05'0 0.0
2017-Jan-17 14:33N 40°41' W 074°05'0 0.0
2017-Jan-17 13:33N 40°41' W 074°05'0 0.0
2017-Jan-17 12:33N 40°41' W 074°05'0 0.0
2017-Jan-17 11:33N 40°41' W 074°05'0 0.0
2017-Jan-17 10:33N 40°41' W 074°05'0 0.0
2017-Jan-17 09:33N 40°41' W 074°05'0 0.0
2017-Jan-17 08:33N 40°41' W 074°05'0 0.0
2017-Jan-17 07:33N 40°41' W 074°05'0 0.0
2017-Jan-17 06:33N 40°41' W 074°05'0 0.0
2017-Jan-17 05:33N 40°41' W 074°05'0 0.0
2017-Jan-17 04:33N 40°41' W 074°05'0 0.0
2017-Jan-17 03:33N 40°41' W 074°05'0 0.0
2017-Jan-17 02:33N 40°41' W 074°05'3 2.7
2017-Jan-17 01:33N 40°39' W 074°06'5 5.1
2017-Jan-17 00:32N 40°36' W 074°12'3 3.0
2017-Jan-16 23:33N 40°39' W 074°11'6 5.5
2017-Jan-16 22:33N 40°41' W 074°04'1 0.6
2017-Jan-16 21:33N 40°41' W 074°05'0 0.0
2017-Jan-16 20:33N 40°41' W 074°05'0 0.0
2017-Jan-16 19:33N 40°41' W 074°05'0 0.0
2017-Jan-16 18:33N 40°41' W 074°05'3 3.3
2017-Jan-16 17:33N 40°40' W 074°01'0 0.1
2017-Jan-16 16:33N 40°40' W 074°01'3 3.3
2017-Jan-16 15:33N 40°41' W 074°05'0 0.0
2017-Jan-16 14:33N 40°41' W 074°05'0 0.1
2017-Jan-16 13:33N 40°41' W 074°05'0 0.1
2017-Jan-16 12:33N 40°41' W 074°05'0 0.0
2017-Jan-16 11:33N 40°41' W 074°05'0 0.0
2017-Jan-16 10:33N 40°41' W 074°05'0 0.0
2017-Jan-16 09:33N 40°41' W 074°05'0 0.0
2017-Jan-16 08:33N 40°41' W 074°05'0 0.0
2017-Jan-16 07:33N 40°41' W 074°05'1 0.5
2017-Jan-16 06:33N 40°41' W 074°04'7 6.5
2017-Jan-16 05:33N 40°44' W 073°57'3 3.4
2017-Jan-16 04:33N 40°42' W 074°00'4 3.5
2017-Jan-16 03:34N 40°41' W 074°05'0 0.0
2017-Jan-16 02:33N 40°41' W 074°05'0 0.0
2017-Jan-16 01:33N 40°41' W 074°05'0 0.0
2017-Jan-16 00:33N 40°41' W 074°05'1 1.1
2017-Jan-15 23:33N 40°40' W 074°04'5 5.5
2017-Jan-15 22:33N 40°39' W 074°11'4 3.5
2017-Jan-15 21:33N 40°35' W 074°12'5 5.2
2017-Jan-15 20:33N 40°39' W 074°07'3 3.0
2017-Jan-15 19:33N 40°41' W 074°04'0 0.2
2017-Jan-15 18:34N 40°41' W 074°05'0 0.0
2017-Jan-15 17:33N 40°41' W 074°05'0 0.0
2017-Jan-15 16:33N 40°41' W 074°05'0 0.0
2017-Jan-15 15:33N 40°41' W 074°05'0 0.1
2017-Jan-15 14:34N 40°41' W 074°05'0 0.0
2017-Jan-15 13:33N 40°41' W 074°05'0 0.1
2017-Jan-15 12:33N 40°41' W 074°05'0 0.0
2017-Jan-15 11:33N 40°41' W 074°05'0 0.0
2017-Jan-15 10:33N 40°41' W 074°05'0 0.0
2017-Jan-15 09:33N 40°41' W 074°05'0 0.0
2017-Jan-15 08:33N 40°41' W 074°05'0 0.0
2017-Jan-15 07:33N 40°41' W 074°05'0 0.0
2017-Jan-15 06:33N 40°41' W 074°05'0 0.0
2017-Jan-15 05:33N 40°41' W 074°05'0 0.0
2017-Jan-15 04:33N 40°41' W 074°05'2 2.0
2017-Jan-15 03:33N 40°40' W 074°02'2 1.5
2017-Jan-15 02:33N 40°40' W 074°01'3 3.5
2017-Jan-15 01:33N 40°41' W 074°05'0 0.0
2017-Jan-15 00:33N 40°41' W 074°05'0 0.0
2017-Jan-14 23:33N 40°41' W 074°05'0 0.0
2017-Jan-14 22:33N 40°41' W 074°05'0 0.0
2017-Jan-14 21:33N 40°41' W 074°05'0 0.0
2017-Jan-14 20:33N 40°41' W 074°05'0 0.0
2017-Jan-14 19:33N 40°41' W 074°05'0 0.0
2017-Jan-14 18:33N 40°41' W 074°05'0 0.0
2017-Jan-14 17:33N 40°41' W 074°05'0 0.0
2017-Jan-14 16:33N 40°41' W 074°05'0 0.0
2017-Jan-14 15:33N 40°41' W 074°05'0 0.0
2017-Jan-14 14:33N 40°41' W 074°05'0 0.0
2017-Jan-14 13:34N 40°41' W 074°05'0 0.0
2017-Jan-14 12:34N 40°41' W 074°05'0 0.0
2017-Jan-14 11:34N 40°41' W 074°05'0 0.0
2017-Jan-14 10:34N 40°41' W 074°05'0 0.0
2017-Jan-14 09:33N 40°41' W 074°05'0 0.0
2017-Jan-14 08:34N 40°41' W 074°05'0 0.0
2017-Jan-14 07:33N 40°41' W 074°05'0 0.0
2017-Jan-14 06:34N 40°41' W 074°05'0 0.0
2017-Jan-14 05:34N 40°41' W 074°05'0 0.0
2017-Jan-14 04:33N 40°41' W 074°05'0 0.0
2017-Jan-14 03:34N 40°41' W 074°05'0 0.0
2017-Jan-13 23:34N 40°41' W 074°04'0 0.2
2017-Jan-13 22:33N 40°41' W 074°05'0 0.0
2017-Jan-13 21:33N 40°41' W 074°05'0 0.0
2017-Jan-13 20:34N 40°41' W 074°05'0 0.0
2017-Jan-13 19:34N 40°41' W 074°05'0 0.0
2017-Jan-13 18:33N 40°41' W 074°05'0 0.2
2017-Jan-13 17:33N 40°41' W 074°04'3 2.9
2017-Jan-13 16:34N 40°41' W 074°01'9 8.5
2017-Jan-13 15:33N 40°48' W 073°54'1 1.1
2017-Jan-13 14:27N 40°49' W 073°52'7 7.6
2017-Jan-13 13:33N 40°44' W 073°58'5 4.7
2017-Jan-13 12:34N 40°40' W 074°02'3 2.6
2017-Jan-13 11:33N 40°41' W 074°05'0 0.0
2017-Jan-13 10:33N 40°41' W 074°05'0 0.0
2017-Jan-13 09:33N 40°41' W 074°05'0 0.0
2017-Jan-13 08:33N 40°41' W 074°05'0 0.0
2017-Jan-13 07:33N 40°41' W 074°05'0 0.0
2017-Jan-13 06:33N 40°41' W 074°05'0 0.0
2017-Jan-13 05:33N 40°41' W 074°05'0 0.0
2017-Jan-13 04:33N 40°41' W 074°05'0 0.0
2017-Jan-13 03:33N 40°41' W 074°05'3 3.5
2017-Jan-13 02:33N 40°40' W 074°01'3 3.3
2017-Jan-13 01:33N 40°41' W 074°04'0 0.2
2017-Jan-13 00:33N 40°41' W 074°05'0 0.0
2017-Jan-12 23:33N 40°41' W 074°05'0 0.0
2017-Jan-12 22:33N 40°41' W 074°05'1 1.1
2017-Jan-12 21:33N 40°41' W 074°04'6 6.0
2017-Jan-12 20:33N 40°44' W 073°57'2 1.6
2017-Jan-12 19:33N 40°43' W 073°58'4 4.2
2017-Jan-12 18:33N 40°41' W 074°03'1 1.4
2017-Jan-12 17:33N 40°41' W 074°05'0 0.0
2017-Jan-12 16:33N 40°41' W 074°05'0 0.0
2017-Jan-12 15:33N 40°41' W 074°05'0 0.0
2017-Jan-12 14:33N 40°41' W 074°05'0 0.0
2017-Jan-12 13:33N 40°41' W 074°05'0 0.0
2017-Jan-12 12:33N 40°41' W 074°05'0 0.0
2017-Jan-12 11:33N 40°41' W 074°05'0 0.0
2017-Jan-12 10:33N 40°41' W 074°05'0 0.0
2017-Jan-12 09:33N 40°41' W 074°05'0 0.0
2017-Jan-12 08:33N 40°41' W 074°05'4 4.3
2017-Jan-12 07:33N 40°39' W 074°09'4 3.9
2017-Jan-12 06:33N 40°35' W 074°12'5 4.7
2017-Jan-12 05:33N 40°39' W 074°08'4 3.6
2017-Jan-12 04:33N 40°41' W 074°04'0 0.2
2017-Jan-12 03:33N 40°41' W 074°05'0 0.0
2017-Jan-12 02:33N 40°41' W 074°05'2 1.9
2017-Jan-12 01:33N 40°40' W 074°02'0 0.5
2017-Jan-12 00:33N 40°40' W 074°02'2 1.9
2017-Jan-11 23:33N 40°41' W 074°04'3 3.0
2017-Jan-11 22:33N 40°40' W 074°01'4 3.7
2017-Jan-11 21:33N 40°43' W 073°58'2 1.8
2017-Jan-11 20:33N 40°44' W 073°57'3 3.2
2017-Jan-11 19:33N 40°42' W 073°60'4 3.7
2017-Jan-11 18:33N 40°41' W 074°04'0 0.2
2017-Jan-11 17:33N 40°41' W 074°05'0 0.0
2017-Jan-11 16:33N 40°41' W 074°05'0 0.0
2017-Jan-11 15:33N 40°41' W 074°05'0 0.0
2017-Jan-11 14:33N 40°41' W 074°05'0 0.0
2017-Jan-11 13:33N 40°41' W 074°05'0 0.0
2017-Jan-11 12:33N 40°41' W 074°05'0 0.0
2017-Jan-11 11:33N 40°41' W 074°05'0 0.0
2017-Jan-11 10:33N 40°41' W 074°05'0 0.0
2017-Jan-11 09:33N 40°41' W 074°05'0 0.0
2017-Jan-11 08:33N 40°41' W 074°05'5 4.6
2017-Jan-11 07:33N 40°43' W 073°59'2 2.2
2017-Jan-11 06:33N 40°44' W 073°57'5 4.9
2017-Jan-11 05:33N 40°41' W 074°02'2 2.4
2017-Jan-11 04:33N 40°41' W 074°05'0 0.0
2017-Jan-11 03:33N 40°41' W 074°05'0 0.0
2017-Jan-11 02:33N 40°41' W 074°05'0 0.0
2017-Jan-11 01:33N 40°41' W 074°05'0 0.0
2017-Jan-11 00:33N 40°41' W 074°05'0 0.0
2017-Jan-10 23:33N 40°41' W 074°05'0 0.0
2017-Jan-10 22:33N 40°41' W 074°05'0 0.0
2017-Jan-10 21:33N 40°41' W 074°05'0 0.0
2017-Jan-10 20:33N 40°41' W 074°05'2 2.4
2017-Jan-10 19:33N 40°41' W 074°02'2 1.7
2017-Jan-10 18:33N 40°41' W 074°04'0 0.1
2017-Jan-10 17:33N 40°41' W 074°04'2 2.1
2017-Jan-10 16:33N 40°40' W 074°01'5 4.8
2017-Jan-10 15:33N 40°44' W 073°58'1 0.8
2017-Jan-10 14:33N 40°44' W 073°57'5 4.5
2017-Jan-10 13:33N 40°48' W 073°53'3 1.7
2017-Jan-10 11:34N 40°46' W 073°57'3 2.9
2017-Jan-10 10:33N 40°43' W 073°58'5 5.3
2017-Jan-10 09:34N 40°41' W 074°04'0 0.0
2017-Jan-10 08:33N 40°41' W 074°04'4 4.3
2017-Jan-10 07:33N 40°39' W 074°09'4 2.9
2017-Jan-10 06:09N 40°35' W 074°12'4 7.6
2017-Jan-10 05:33N 40°39' W 074°08'  
Track history (hours):
 
Tides and Currents Weather Stations Pressure Air Temp Water Temp Dewpoint Dewpoint Depression Visibility Wind Speed Wind Dir Waves Ship Positions

MV Sea Wolf

Owner: SEA WOLF MARINE TOWING & TRANSPORTATION, Bayonne, NJ. More information available from US FCC via Universal Licensing System and Coast Guard Vessel Documentation Center.

Last reported at 2017-Jan-20 05:33 UTC. Time now 2017-Jan-20 05:54 UTC.
Position N 40°41' W 074°05'.

Length 66 m; draft 10 m.

MMSI: 367002350.

Date/timePositionNaut miles runAvg speedWind from/ knotsBaromVisibWave heightAir tempDewpointWater temp
2017-Jan-20 05:33N 40°41' W 074°05'4 4.2
2017-Jan-20 04:33N 40°42' W 073°59'3 2.7
2017-Jan-20 03:33N 40°44' W 073°57'6 5.7
2017-Jan-20 02:33N 40°41' W 074°03'2 1.5
2017-Jan-20 01:33N 40°41' W 074°05'0 0.0
2017-Jan-20 00:33N 40°41' W 074°05'0 0.0
2017-Jan-19 23:33N 40°41' W 074°05'0 0.0
2017-Jan-19 22:33N 40°41' W 074°05'0 0.0
2017-Jan-19 21:33N 40°41' W 074°05'0 0.0
2017-Jan-19 20:33N 40°41' W 074°05'3 2.6
2017-Jan-19 19:33N 40°39' W 074°06'4 4.3
2017-Jan-19 18:33N 40°38' W 074°12'0 0.0
2017-Jan-19 17:33N 40°38' W 074°12'0 0.0
2017-Jan-19 16:33N 40°38' W 074°12'0 0.0
2017-Jan-19 15:33N 40°38' W 074°12'0 0.0
2017-Jan-19 14:33N 40°38' W 074°12'0 0.0
2017-Jan-19 13:33N 40°38' W 074°12'0 0.0
2017-Jan-19 12:33N 40°38' W 074°12'0 0.0
2017-Jan-19 11:33N 40°38' W 074°12'2 1.7
2017-Jan-19 10:33N 40°39' W 074°09'5 4.8
2017-Jan-19 09:34N 40°40' W 074°04'1 1.1
2017-Jan-19 08:33N 40°41' W 074°05'0 0.0
2017-Jan-19 07:34N 40°41' W 074°05'0 0.0
2017-Jan-19 06:34N 40°41' W 074°05'0 0.0
2017-Jan-19 05:33N 40°41' W 074°05'0 0.0
2017-Jan-19 04:33N 40°41' W 074°05'0 0.2
2017-Jan-19 03:33N 40°41' W 074°04'5 4.5
2017-Jan-19 02:33N 40°39' W 074°10'4 3.7
2017-Jan-19 01:33N 40°36' W 074°12'6 5.9
2017-Jan-19 00:33N 40°39' W 074°06'2 2.4
2017-Jan-18 23:34N 40°41' W 074°05'0 0.0
2017-Jan-18 22:33N 40°41' W 074°05'0 0.0
2017-Jan-18 21:33N 40°41' W 074°05'0 0.0
2017-Jan-18 20:33N 40°41' W 074°05'0 0.0
2017-Jan-18 19:33N 40°41' W 074°05'0 0.0
2017-Jan-18 18:34N 40°41' W 074°05'0 0.0
2017-Jan-18 17:33N 40°41' W 074°05'0 0.0
2017-Jan-18 16:33N 40°41' W 074°05'0 0.0
2017-Jan-18 15:34N 40°41' W 074°05'0 0.0
2017-Jan-18 14:33N 40°41' W 074°05'0 0.0
2017-Jan-18 13:33N 40°41' W 074°05'0 0.0
2017-Jan-18 12:33N 40°41' W 074°05'0 0.0
2017-Jan-18 11:33N 40°41' W 074°05'0 0.0
2017-Jan-18 10:33N 40°41' W 074°05'0 0.0
2017-Jan-18 09:33N 40°41' W 074°05'3 2.6
2017-Jan-18 08:33N 40°42' W 074°01'4 4.2
2017-Jan-18 07:33N 40°44' W 073°57'5 5.4
2017-Jan-18 06:33N 40°40' W 074°01'3 2.6
2017-Jan-18 05:33N 40°41' W 074°04'0 0.4
2017-Jan-18 04:33N 40°41' W 074°05'0 0.0
2017-Jan-18 03:33N 40°41' W 074°05'0 0.0
2017-Jan-18 02:33N 40°41' W 074°05'0 0.0
2017-Jan-18 01:33N 40°41' W 074°05'0 0.0
2017-Jan-18 00:33N 40°41' W 074°05'0 0.0
2017-Jan-17 23:33N 40°41' W 074°05'0 0.0
2017-Jan-17 22:33N 40°41' W 074°05'0 0.0
2017-Jan-17 21:33N 40°41' W 074°05'0 0.0
2017-Jan-17 20:33N 40°41' W 074°05'0 0.0
2017-Jan-17 19:33N 40°41' W 074°05'0 0.1
2017-Jan-17 18:33N 40°41' W 074°05'0 0.0
2017-Jan-17 17:33N 40°41' W 074°05'0 0.1
2017-Jan-17 16:33N 40°41' W 074°05'0 0.0
2017-Jan-17 15:33N 40°41' W 074°05'0 0.0
2017-Jan-17 14:33N 40°41' W 074°05'0 0.0
2017-Jan-17 13:33N 40°41' W 074°05'0 0.0
2017-Jan-17 12:33N 40°41' W 074°05'0 0.0
2017-Jan-17 11:33N 40°41' W 074°05'0 0.0
2017-Jan-17 10:33N 40°41' W 074°05'0 0.0
2017-Jan-17 09:33N 40°41' W 074°05'0 0.0
2017-Jan-17 08:33N 40°41' W 074°05'0 0.0
2017-Jan-17 07:33N 40°41' W 074°05'0 0.0
2017-Jan-17 06:33N 40°41' W 074°05'0 0.0
2017-Jan-17 05:33N 40°41' W 074°05'0 0.0
2017-Jan-17 04:33N 40°41' W 074°05'0 0.0
2017-Jan-17 03:33N 40°41' W 074°05'0 0.0
2017-Jan-17 02:33N 40°41' W 074°05'3 2.7
2017-Jan-17 01:33N 40°39' W 074°06'5 5.1
2017-Jan-17 00:32N 40°36' W 074°12'3 3.0
2017-Jan-16 23:33N 40°39' W 074°11'6 5.5
2017-Jan-16 22:33N 40°41' W 074°04'1 0.6
2017-Jan-16 21:33N 40°41' W 074°05'0 0.0
2017-Jan-16 20:33N 40°41' W 074°05'0 0.0
2017-Jan-16 19:33N 40°41' W 074°05'0 0.0
2017-Jan-16 18:33N 40°41' W 074°05'3 3.3
2017-Jan-16 17:33N 40°40' W 074°01'0 0.1
2017-Jan-16 16:33N 40°40' W 074°01'3 3.3
2017-Jan-16 15:33N 40°41' W 074°05'0 0.0
2017-Jan-16 14:33N 40°41' W 074°05'0 0.1
2017-Jan-16 13:33N 40°41' W 074°05'0 0.1
2017-Jan-16 12:33N 40°41' W 074°05'0 0.0
2017-Jan-16 11:33N 40°41' W 074°05'0 0.0
2017-Jan-16 10:33N 40°41' W 074°05'0 0.0
2017-Jan-16 09:33N 40°41' W 074°05'0 0.0
2017-Jan-16 08:33N 40°41' W 074°05'0 0.0
2017-Jan-16 07:33N 40°41' W 074°05'1 0.5
2017-Jan-16 06:33N 40°41' W 074°04'7 6.5
2017-Jan-16 05:33N 40°44' W 073°57'3 3.4
2017-Jan-16 04:33N 40°42' W 074°00'4 3.5
2017-Jan-16 03:34N 40°41' W 074°05'0 0.0
2017-Jan-16 02:33N 40°41' W 074°05'0 0.0
2017-Jan-16 01:33N 40°41' W 074°05'0 0.0
2017-Jan-16 00:33N 40°41' W 074°05'1 1.1
2017-Jan-15 23:33N 40°40' W 074°04'5 5.5
2017-Jan-15 22:33N 40°39' W 074°11'4 3.5
2017-Jan-15 21:33N 40°35' W 074°12'5 5.2
2017-Jan-15 20:33N 40°39' W 074°07'3 3.0
2017-Jan-15 19:33N 40°41' W 074°04'0 0.2
2017-Jan-15 18:34N 40°41' W 074°05'0 0.0
2017-Jan-15 17:33N 40°41' W 074°05'0 0.0
2017-Jan-15 16:33N 40°41' W 074°05'0 0.0
2017-Jan-15 15:33N 40°41' W 074°05'0 0.1
2017-Jan-15 14:34N 40°41' W 074°05'0 0.0
2017-Jan-15 13:33N 40°41' W 074°05'0 0.1
2017-Jan-15 12:33N 40°41' W 074°05'0 0.0
2017-Jan-15 11:33N 40°41' W 074°05'0 0.0
2017-Jan-15 10:33N 40°41' W 074°05'0 0.0
2017-Jan-15 09:33N 40°41' W 074°05'0 0.0
2017-Jan-15 08:33N 40°41' W 074°05'0 0.0
2017-Jan-15 07:33N 40°41' W 074°05'0 0.0
2017-Jan-15 06:33N 40°41' W 074°05'0 0.0
2017-Jan-15 05:33N 40°41' W 074°05'0 0.0
2017-Jan-15 04:33N 40°41' W 074°05'2 2.0
2017-Jan-15 03:33N 40°40' W 074°02'2 1.5
2017-Jan-15 02:33N 40°40' W 074°01'3 3.5
2017-Jan-15 01:33N 40°41' W 074°05'0 0.0
2017-Jan-15 00:33N 40°41' W 074°05'0 0.0
2017-Jan-14 23:33N 40°41' W 074°05'0 0.0
2017-Jan-14 22:33N 40°41' W 074°05'0 0.0
2017-Jan-14 21:33N 40°41' W 074°05'0 0.0
2017-Jan-14 20:33N 40°41' W 074°05'0 0.0
2017-Jan-14 19:33N 40°41' W 074°05'0 0.0
2017-Jan-14 18:33N 40°41' W 074°05'0 0.0
2017-Jan-14 17:33N 40°41' W 074°05'0 0.0
2017-Jan-14 16:33N 40°41' W 074°05'0 0.0
2017-Jan-14 15:33N 40°41' W 074°05'0 0.0
2017-Jan-14 14:33N 40°41' W 074°05'0 0.0
2017-Jan-14 13:34N 40°41' W 074°05'0 0.0
2017-Jan-14 12:34N 40°41' W 074°05'0 0.0
2017-Jan-14 11:34N 40°41' W 074°05'0 0.0
2017-Jan-14 10:34N 40°41' W 074°05'0 0.0
2017-Jan-14 09:33N 40°41' W 074°05'0 0.0
2017-Jan-14 08:34N 40°41' W 074°05'0 0.0
2017-Jan-14 07:33N 40°41' W 074°05'0 0.0
2017-Jan-14 06:34N 40°41' W 074°05'0 0.0
2017-Jan-14 05:34N 40°41' W 074°05'0 0.0
2017-Jan-14 04:33N 40°41' W 074°05'0 0.0
2017-Jan-14 03:34N 40°41' W 074°05'0 0.0
2017-Jan-13 23:34N 40°41' W 074°04'0 0.2
2017-Jan-13 22:33N 40°41' W 074°05'0 0.0
2017-Jan-13 21:33N 40°41' W 074°05'0 0.0
2017-Jan-13 20:34N 40°41' W 074°05'0 0.0
2017-Jan-13 19:34N 40°41' W 074°05'0 0.0
2017-Jan-13 18:33N 40°41' W 074°05'0 0.2
2017-Jan-13 17:33N 40°41' W 074°04'3 2.9
2017-Jan-13 16:34N 40°41' W 074°01'9 8.5
2017-Jan-13 15:33N 40°48' W 073°54'1 1.1
2017-Jan-13 14:27N 40°49' W 073°52'7 7.6
2017-Jan-13 13:33N 40°44' W 073°58'5 4.7
2017-Jan-13 12:34N 40°40' W 074°02'3 2.6
2017-Jan-13 11:33N 40°41' W 074°05'0 0.0
2017-Jan-13 10:33N 40°41' W 074°05'0 0.0
2017-Jan-13 09:33N 40°41' W 074°05'0 0.0
2017-Jan-13 08:33N 40°41' W 074°05'0 0.0
2017-Jan-13 07:33N 40°41' W 074°05'0 0.0
2017-Jan-13 06:33N 40°41' W 074°05'0 0.0
2017-Jan-13 05:33N 40°41' W 074°05'0 0.0
2017-Jan-13 04:33N 40°41' W 074°05'0 0.0
2017-Jan-13 03:33N 40°41' W 074°05'3 3.5
2017-Jan-13 02:33N 40°40' W 074°01'3 3.3
2017-Jan-13 01:33N 40°41' W 074°04'0 0.2
2017-Jan-13 00:33N 40°41' W 074°05'0 0.0
2017-Jan-12 23:33N 40°41' W 074°05'0 0.0
2017-Jan-12 22:33N 40°41' W 074°05'1 1.1
2017-Jan-12 21:33N 40°41' W 074°04'6 6.0
2017-Jan-12 20:33N 40°44' W 073°57'2 1.6
2017-Jan-12 19:33N 40°43' W 073°58'4 4.2
2017-Jan-12 18:33N 40°41' W 074°03'1 1.4
2017-Jan-12 17:33N 40°41' W 074°05'0 0.0
2017-Jan-12 16:33N 40°41' W 074°05'0 0.0
2017-Jan-12 15:33N 40°41' W 074°05'0 0.0
2017-Jan-12 14:33N 40°41' W 074°05'0 0.0
2017-Jan-12 13:33N 40°41' W 074°05'0 0.0
2017-Jan-12 12:33N 40°41' W 074°05'0 0.0
2017-Jan-12 11:33N 40°41' W 074°05'0 0.0
2017-Jan-12 10:33N 40°41' W 074°05'0 0.0
2017-Jan-12 09:33N 40°41' W 074°05'0 0.0
2017-Jan-12 08:33N 40°41' W 074°05'4 4.3
2017-Jan-12 07:33N 40°39' W 074°09'4 3.9
2017-Jan-12 06:33N 40°35' W 074°12'5 4.7
2017-Jan-12 05:33N 40°39' W 074°08'4 3.6
2017-Jan-12 04:33N 40°41' W 074°04'0 0.2
2017-Jan-12 03:33N 40°41' W 074°05'0 0.0
2017-Jan-12 02:33N 40°41' W 074°05'2 1.9
2017-Jan-12 01:33N 40°40' W 074°02'0 0.5
2017-Jan-12 00:33N 40°40' W 074°02'2 1.9
2017-Jan-11 23:33N 40°41' W 074°04'3 3.0
2017-Jan-11 22:33N 40°40' W 074°01'4 3.7
2017-Jan-11 21:33N 40°43' W 073°58'2 1.8
2017-Jan-11 20:33N 40°44' W 073°57'3 3.2
2017-Jan-11 19:33N 40°42' W 073°60'4 3.7
2017-Jan-11 18:33N 40°41' W 074°04'0 0.2
2017-Jan-11 17:33N 40°41' W 074°05'0 0.0
2017-Jan-11 16:33N 40°41' W 074°05'0 0.0
2017-Jan-11 15:33N 40°41' W 074°05'0 0.0
2017-Jan-11 14:33N 40°41' W 074°05'0 0.0
2017-Jan-11 13:33N 40°41' W 074°05'0 0.0
2017-Jan-11 12:33N 40°41' W 074°05'0 0.0
2017-Jan-11 11:33N 40°41' W 074°05'0 0.0
2017-Jan-11 10:33N 40°41' W 074°05'0 0.0
2017-Jan-11 09:33N 40°41' W 074°05'0 0.0
2017-Jan-11 08:33N 40°41' W 074°05'5 4.6
2017-Jan-11 07:33N 40°43' W 073°59'2 2.2
2017-Jan-11 06:33N 40°44' W 073°57'5 4.9
2017-Jan-11 05:33N 40°41' W 074°02'2 2.4
2017-Jan-11 04:33N 40°41' W 074°05'0 0.0
2017-Jan-11 03:33N 40°41' W 074°05'0 0.0
2017-Jan-11 02:33N 40°41' W 074°05'0 0.0
2017-Jan-11 01:33N 40°41' W 074°05'0 0.0
2017-Jan-11 00:33N 40°41' W 074°05'0 0.0
2017-Jan-10 23:33N 40°41' W 074°05'0 0.0
2017-Jan-10 22:33N 40°41' W 074°05'0 0.0
2017-Jan-10 21:33N 40°41' W 074°05'0 0.0
2017-Jan-10 20:33N 40°41' W 074°05'2 2.4
2017-Jan-10 19:33N 40°41' W 074°02'2 1.7
2017-Jan-10 18:33N 40°41' W 074°04'0 0.1
2017-Jan-10 17:33N 40°41' W 074°04'2 2.1
2017-Jan-10 16:33N 40°40' W 074°01'5 4.8
2017-Jan-10 15:33N 40°44' W 073°58'1 0.8
2017-Jan-10 14:33N 40°44' W 073°57'5 4.5
2017-Jan-10 13:33N 40°48' W 073°53'3 1.7
2017-Jan-10 11:34N 40°46' W 073°57'3 2.9
2017-Jan-10 10:33N 40°43' W 073°58'5 5.3
2017-Jan-10 09:34N 40°41' W 074°04'0 0.0
2017-Jan-10 08:33N 40°41' W 074°04'4 4.3
2017-Jan-10 07:33N 40°39' W 074°09'4 2.9
2017-Jan-10 06:09N 40°35' W 074°12'4 7.6
2017-Jan-10 05:33N 40°39' W 074°08'  

Dump ship's entire track history